createdAt,value
2023-02-22T00:01:35.142Z,9.40
2023-02-22T00:04:06.887Z,9.40
2023-02-22T00:06:34.042Z,9.50
2023-02-22T00:09:02.226Z,9.60
2023-02-22T00:11:28.891Z,9.60
2023-02-22T00:13:58.456Z,9.70
2023-02-22T00:16:26.719Z,9.60
2023-02-22T00:18:53.738Z,9.60
2023-02-22T00:21:21.655Z,9.70
2023-02-22T00:23:49.130Z,9.70
2023-02-22T00:26:19.181Z,9.70
2023-02-22T00:28:53.316Z,9.70
2023-02-22T00:31:21.330Z,9.60
2023-02-22T00:33:48.145Z,9.50
2023-02-22T00:36:15.100Z,9.50
2023-02-22T00:38:42.117Z,9.50
2023-02-22T00:41:09.192Z,9.40
2023-02-22T00:43:35.983Z,9.50
2023-02-22T00:46:02.664Z,9.40
2023-02-22T00:48:29.305Z,9.30
2023-02-22T00:50:55.994Z,9.30
2023-02-22T00:53:24.218Z,9.30
2023-02-22T00:55:51.178Z,9.20
2023-02-22T00:58:18.557Z,9.20
2023-02-22T01:00:45.537Z,9.10
2023-02-22T01:03:14.667Z,9.10
2023-02-22T01:05:41.513Z,9.00
2023-02-22T01:08:09.984Z,9.00
2023-02-22T01:10:37.811Z,9.00
2023-02-22T01:13:08.386Z,9.00
2023-02-22T01:15:36.948Z,9.00
2023-02-22T01:18:05.018Z,9.00
2023-02-22T01:20:32.404Z,9.00
2023-02-22T01:23:00.828Z,9.00
2023-02-22T01:25:29.566Z,9.00
2023-02-22T01:27:58.339Z,9.00
2023-02-22T01:30:27.957Z,9.00
2023-02-22T01:32:55.345Z,9.00
2023-02-22T01:35:27.571Z,9.00
2023-02-22T01:37:54.162Z,8.90
2023-02-22T01:40:25.290Z,8.70
2023-02-22T01:42:52.396Z,8.70
2023-02-22T01:45:32.490Z,8.70
2023-02-22T01:48:14.710Z,8.70
2023-02-22T01:50:53.919Z,8.70
2023-02-22T01:53:24.834Z,8.60
2023-02-22T01:55:52.017Z,8.60
2023-02-22T01:58:20.834Z,8.60
2023-02-22T02:00:47.420Z,8.70
2023-02-22T02:03:21.535Z,8.70
2023-02-22T02:05:51.491Z,8.70
2023-02-22T02:08:36.667Z,8.70
2023-02-22T02:11:08.895Z,8.70
2023-02-22T02:13:36.649Z,8.70
2023-02-22T02:16:03.591Z,8.80
2023-02-22T02:18:32.446Z,8.80
2023-02-22T02:21:24.054Z,8.80
2023-02-22T02:24:13.000Z,8.70
2023-02-22T02:27:01.131Z,8.60
2023-02-22T02:29:49.371Z,8.60
2023-02-22T02:32:36.510Z,8.50
2023-02-22T02:35:21.971Z,8.40
2023-02-22T02:38:11.294Z,8.30
2023-02-22T02:40:50.756Z,8.30
2023-02-22T02:43:32.001Z,8.30
2023-02-22T02:46:10.969Z,8.30
2023-02-22T02:48:41.658Z,8.20
2023-02-22T02:51:10.629Z,8.30
2023-02-22T02:53:40.891Z,8.20
2023-02-22T02:56:07.554Z,8.20
2023-02-22T02:58:34.331Z,8.30
2023-02-22T03:01:04.479Z,8.20
2023-02-22T03:04:16.007Z,8.20
2023-02-22T03:07:01.201Z,8.20
2023-02-22T03:09:37.822Z,8.30
2023-02-22T03:12:38.562Z,8.30
2023-02-22T03:15:21.732Z,8.40
2023-02-22T03:18:11.647Z,8.40
2023-02-22T03:20:50.309Z,8.30
2023-02-22T03:23:28.359Z,8.30
2023-02-22T03:26:05.597Z,8.20
2023-02-22T03:28:33.681Z,8.20
2023-02-22T03:31:10.858Z,8.00
2023-02-22T03:33:43.799Z,8.00
2023-02-22T03:36:34.587Z,8.00
2023-02-22T03:39:04.168Z,8.10
2023-02-22T03:41:33.275Z,8.00
2023-02-22T03:44:04.437Z,8.10
2023-02-22T03:46:31.335Z,8.10
2023-02-22T03:49:32.728Z,8.10
2023-02-22T03:51:59.442Z,8.10
2023-02-22T03:54:27.413Z,8.00
2023-02-22T03:56:58.338Z,8.00
2023-02-22T03:59:27.510Z,8.00
2023-02-22T04:01:55.340Z,8.00
2023-02-22T04:04:23.192Z,8.00
2023-02-22T04:06:50.298Z,8.00
2023-02-22T04:09:17.688Z,8.00
2023-02-22T04:11:45.443Z,8.00
2023-02-22T04:14:12.495Z,7.90
2023-02-22T04:16:39.645Z,7.90
2023-02-22T04:19:06.265Z,7.90
2023-02-22T04:21:32.835Z,7.90
2023-02-22T04:23:59.987Z,7.90
2023-02-22T04:26:26.558Z,7.90
2023-02-22T04:28:53.165Z,7.90
2023-02-22T04:31:19.979Z,8.00
2023-02-22T04:33:46.884Z,8.00
2023-02-22T04:36:15.841Z,8.00
2023-02-22T04:38:43.084Z,8.00
2023-02-22T04:41:09.682Z,8.00
2023-02-22T04:43:36.199Z,8.10
2023-02-22T04:46:04.247Z,8.10
2023-02-22T04:48:31.069Z,8.00
2023-02-22T04:50:57.615Z,8.00
2023-02-22T04:53:24.279Z,7.90
2023-02-22T04:55:50.800Z,7.80
2023-02-22T04:58:17.402Z,7.90
2023-02-22T05:00:44.278Z,7.80
2023-02-22T05:03:10.851Z,7.80
2023-02-22T05:05:37.544Z,7.80
2023-02-22T05:08:05.590Z,7.80
2023-02-22T05:10:32.213Z,7.80
2023-02-22T05:12:58.762Z,7.80
2023-02-22T05:15:25.527Z,7.80
2023-02-22T05:17:53.193Z,7.80
2023-02-22T05:20:29.727Z,7.90
2023-02-22T05:22:58.264Z,7.90
2023-02-22T05:25:25.441Z,7.80
2023-02-22T05:27:54.654Z,7.80
2023-02-22T05:30:27.182Z,7.70
2023-02-22T05:32:53.819Z,7.70
2023-02-22T05:35:21.749Z,7.70
2023-02-22T05:37:50.548Z,7.70
2023-02-22T05:40:22.425Z,7.70
2023-02-22T05:42:50.370Z,7.80
2023-02-22T05:45:20.181Z,7.70
2023-02-22T05:47:47.418Z,7.70
2023-02-22T05:50:14.914Z,7.70
2023-02-22T05:52:41.620Z,7.70
2023-02-22T05:55:10.474Z,7.70
2023-02-22T05:57:37.003Z,7.70
2023-02-22T06:00:06.849Z,7.70
2023-02-22T06:02:33.897Z,7.70
2023-02-22T06:05:00.714Z,7.70
2023-02-22T06:07:27.376Z,7.70
2023-02-22T06:09:54.050Z,7.70
2023-02-22T06:12:20.643Z,7.70
2023-02-22T06:14:47.207Z,7.70
2023-02-22T06:17:15.386Z,7.80
2023-02-22T06:19:42.007Z,7.70
2023-02-22T06:22:15.485Z,7.70
2023-02-22T06:24:42.004Z,7.50
2023-02-22T06:27:08.742Z,7.40
2023-02-22T06:29:35.259Z,7.40
2023-02-22T06:32:01.896Z,7.30
2023-02-22T06:34:28.508Z,7.30
2023-02-22T06:36:55.053Z,7.40
2023-02-22T06:39:21.610Z,7.40
2023-02-22T06:41:48.269Z,7.40
2023-02-22T06:44:15.253Z,7.50
2023-02-22T06:46:53.874Z,7.60
2023-02-22T06:49:21.650Z,7.70
2023-02-22T06:51:48.404Z,7.70
2023-02-22T06:54:15.122Z,7.70
2023-02-22T06:56:41.734Z,7.70
2023-02-22T06:59:08.552Z,7.80
2023-02-22T07:01:35.535Z,7.90
2023-02-22T07:04:02.278Z,7.90
2023-02-22T07:06:28.842Z,7.90
2023-02-22T07:08:55.390Z,8.00
2023-02-22T07:11:22.063Z,8.10
2023-02-22T07:13:48.608Z,8.00
2023-02-22T07:16:15.202Z,8.00
2023-02-22T07:18:41.839Z,8.10
2023-02-22T07:21:08.389Z,8.10
2023-02-22T07:23:34.962Z,8.30
2023-02-22T07:26:02.677Z,8.40
2023-02-22T07:28:29.415Z,8.50
2023-02-22T07:30:55.982Z,8.50
2023-02-22T07:33:22.579Z,8.60
2023-02-22T07:35:50.814Z,8.70
2023-02-22T07:38:20.262Z,8.70
2023-02-22T07:40:47.006Z,8.70
2023-02-22T07:43:17.830Z,8.80
2023-02-22T07:45:44.822Z,8.80
2023-02-22T07:48:12.626Z,8.80
2023-02-22T07:50:40.436Z,9.00
2023-02-22T07:53:11.509Z,9.20
2023-02-22T07:55:37.957Z,9.30
2023-02-22T07:58:08.090Z,9.30
2023-02-22T08:00:39.547Z,9.50
2023-02-22T08:03:09.167Z,9.50
2023-02-22T08:05:37.747Z,9.60
2023-02-22T08:08:05.995Z,9.70
2023-02-22T08:10:33.639Z,9.70
2023-02-22T08:13:00.547Z,9.70
2023-02-22T08:15:30.407Z,9.70
2023-02-22T08:17:58.435Z,9.90
2023-02-22T08:20:25.681Z,10.30
2023-02-22T08:22:52.903Z,10.80
2023-02-22T08:25:20.833Z,11.30
2023-02-22T08:27:47.614Z,11.80
2023-02-22T08:30:18.687Z,12.10
2023-02-22T08:32:48.635Z,12.10
2023-02-22T08:35:16.546Z,12.20
2023-02-22T08:37:48.724Z,12.70
2023-02-22T08:40:19.500Z,13.40
2023-02-22T08:42:46.011Z,14.30
2023-02-22T08:45:13.655Z,14.80
2023-02-22T08:47:40.843Z,15.40
2023-02-22T08:50:08.540Z,16.00
2023-02-22T08:52:35.105Z,16.30
2023-02-22T08:55:02.304Z,16.70
2023-02-22T08:57:28.904Z,17.10
2023-02-22T08:59:55.495Z,17.40
2023-02-22T09:02:22.360Z,17.60
2023-02-22T09:04:49.498Z,17.90
2023-02-22T09:07:17.069Z,18.10
2023-02-22T09:09:44.280Z,18.20
2023-02-22T09:12:11.043Z,18.20
2023-02-22T09:14:38.072Z,18.60
2023-02-22T09:17:05.938Z,18.70
2023-02-22T09:19:32.872Z,18.20
2023-02-22T09:21:59.966Z,17.60
2023-02-22T09:24:27.331Z,17.40
2023-02-22T09:26:59.130Z,17.50
2023-02-22T09:29:27.537Z,17.60
2023-02-22T09:31:56.276Z,18.00
2023-02-22T09:34:29.301Z,18.40
2023-02-22T09:36:57.584Z,19.00
2023-02-22T09:39:24.506Z,19.50
2023-02-22T09:42:05.725Z,19.80
2023-02-22T09:44:55.713Z,20.10
2023-02-22T09:47:36.893Z,20.10
2023-02-22T09:50:24.534Z,20.30
2023-02-22T09:53:04.170Z,20.50
2023-02-22T09:55:45.290Z,20.50
2023-02-22T09:58:34.170Z,20.40
2023-02-22T10:01:18.663Z,20.50
2023-02-22T10:04:00.145Z,20.70
2023-02-22T10:06:26.887Z,20.90
2023-02-22T10:08:57.305Z,21.10
2023-02-22T10:12:01.623Z,21.30
2023-02-22T10:15:05.122Z,21.20
2023-02-22T10:18:20.747Z,21.00
2023-02-22T10:21:07.555Z,20.90
2023-02-22T10:23:55.429Z,20.80
2023-02-22T10:26:32.269Z,20.60
2023-02-22T10:29:01.833Z,20.70
2023-02-22T10:31:33.460Z,20.30
2023-02-22T10:34:07.329Z,20.00
2023-02-22T10:36:34.349Z,19.50
2023-02-22T10:39:23.207Z,18.90
2023-02-22T10:41:52.886Z,18.60
2023-02-22T10:44:19.484Z,18.30
2023-02-22T10:46:47.248Z,18.30
2023-02-22T10:49:21.131Z,18.30
2023-02-22T10:52:13.827Z,18.10
2023-02-22T10:54:43.549Z,17.90
2023-02-22T10:57:13.331Z,17.80
2023-02-22T10:59:42.275Z,18.20
2023-02-22T11:02:31.539Z,18.50
2023-02-22T11:05:00.651Z,18.30
2023-02-22T11:07:32.114Z,18.00
2023-02-22T11:10:01.235Z,18.00
2023-02-22T11:12:32.359Z,17.90
2023-02-22T11:15:18.856Z,17.70
2023-02-22T11:17:49.978Z,17.60
2023-02-22T11:20:25.485Z,17.50
2023-02-22T11:22:57.493Z,17.30
2023-02-22T11:25:46.759Z,17.30
2023-02-22T11:28:30.915Z,17.40
2023-02-22T11:31:08.764Z,17.30
2023-02-22T11:33:37.256Z,17.10
2023-02-22T11:36:08.616Z,17.00
2023-02-22T11:38:39.581Z,16.90
2023-02-22T11:41:06.117Z,16.80
2023-02-22T11:43:32.680Z,16.70
2023-02-22T11:46:21.699Z,16.60
2023-02-22T11:49:08.887Z,16.60
2023-02-22T11:51:53.690Z,16.60
2023-02-22T11:54:35.632Z,16.60
2023-02-22T11:57:23.838Z,16.60
2023-02-22T12:00:15.308Z,16.50
2023-02-22T12:02:57.297Z,16.40
2023-02-22T12:05:30.766Z,16.30
2023-02-22T12:08:19.342Z,16.40
2023-02-22T12:11:18.247Z,16.50
2023-02-22T12:14:05.451Z,16.40
2023-02-22T12:16:37.943Z,16.30
2023-02-22T12:19:37.895Z,16.20
2023-02-22T12:22:33.283Z,16.10
2023-02-22T12:25:14.523Z,16.10
2023-02-22T12:27:43.489Z,16.00
2023-02-22T12:30:28.792Z,16.10
2023-02-22T12:33:21.528Z,16.20
2023-02-22T12:35:54.764Z,16.20
2023-02-22T12:38:31.264Z,16.20
2023-02-22T12:41:20.498Z,16.20
2023-02-22T12:43:58.303Z,16.10
2023-02-22T12:46:29.174Z,16.00
2023-02-22T12:49:26.637Z,15.90
2023-02-22T12:52:19.388Z,15.90
2023-02-22T12:54:56.112Z,15.90
2023-02-22T12:57:39.252Z,15.80
2023-02-22T13:00:23.151Z,15.70
2023-02-22T13:03:00.130Z,15.60
2023-02-22T13:05:35.377Z,15.60
2023-02-22T13:08:21.499Z,15.60
2023-02-22T13:11:08.825Z,15.50
2023-02-22T13:13:45.976Z,15.50
2023-02-22T13:16:30.948Z,15.50
2023-02-22T13:19:19.630Z,15.60
2023-02-22T13:21:58.379Z,15.60
2023-02-22T13:24:46.676Z,15.60
2023-02-22T13:27:21.291Z,15.50
2023-02-22T13:29:51.910Z,15.50
2023-02-22T13:32:29.870Z,15.50
2023-02-22T13:35:09.041Z,15.40
2023-02-22T13:37:48.041Z,15.40
2023-02-22T13:40:26.682Z,15.30
2023-02-22T13:43:12.204Z,15.30
2023-02-22T13:45:41.587Z,15.20
2023-02-22T13:48:15.816Z,15.20
2023-02-22T13:50:51.384Z,15.20
2023-02-22T13:53:24.947Z,15.20
2023-02-22T13:55:58.042Z,15.10
2023-02-22T13:58:25.602Z,15.10
2023-02-22T14:00:58.023Z,15.10
2023-02-22T14:03:36.008Z,15.20
2023-02-22T14:06:04.643Z,15.20
2023-02-22T14:08:31.521Z,15.20
2023-02-22T14:11:02.408Z,15.20
2023-02-22T14:13:32.136Z,15.20
2023-02-22T14:15:59.717Z,15.10
2023-02-22T14:18:35.106Z,15.10
2023-02-22T14:21:10.474Z,15.10
2023-02-22T14:23:40.805Z,15.10
2023-02-22T14:26:15.183Z,15.10
2023-02-22T14:28:58.586Z,15.00
2023-02-22T14:31:46.377Z,15.00
2023-02-22T14:34:17.325Z,14.90
2023-02-22T14:37:17.144Z,14.80
2023-02-22T14:40:13.333Z,14.80
2023-02-22T14:42:48.533Z,14.70
2023-02-22T14:45:29.729Z,14.60
2023-02-22T14:48:24.732Z,14.60
2023-02-22T14:50:56.658Z,14.60
2023-02-22T14:53:43.886Z,14.60
2023-02-22T14:56:56.862Z,14.70
2023-02-22T14:59:26.633Z,14.60
2023-02-22T15:02:13.569Z,14.60
2023-02-22T15:04:43.807Z,14.60
2023-02-22T15:07:30.057Z,14.60
2023-02-22T15:10:20.434Z,14.50
2023-02-22T15:13:09.512Z,14.50
2023-02-22T15:15:46.299Z,14.50
2023-02-22T15:18:22.690Z,14.40
2023-02-22T15:20:56.099Z,14.30
2023-02-22T15:23:26.678Z,14.20
2023-02-22T15:25:53.955Z,14.20
2023-02-22T15:28:24.078Z,14.10
2023-02-22T15:30:50.650Z,14.10
2023-02-22T15:33:24.132Z,14.10
2023-02-22T15:35:57.594Z,14.00
2023-02-22T15:38:30.481Z,14.00
2023-02-22T15:41:05.865Z,13.90
2023-02-22T15:43:32.630Z,13.90
2023-02-22T15:46:00.353Z,13.80
2023-02-22T15:48:28.362Z,13.80
2023-02-22T15:51:07.259Z,13.80
2023-02-22T15:53:45.121Z,13.70
2023-02-22T15:56:19.117Z,13.70
2023-02-22T15:58:47.348Z,13.70
2023-02-22T16:01:18.811Z,13.60
2023-02-22T16:03:55.073Z,13.60
2023-02-22T16:06:33.318Z,13.60
2023-02-22T16:09:07.159Z,13.50
2023-02-22T16:11:39.688Z,13.50
2023-02-22T16:14:23.356Z,13.50
2023-02-22T16:16:50.165Z,13.50
2023-02-22T16:19:42.100Z,13.50
2023-02-22T16:22:26.693Z,13.40
2023-02-22T16:24:54.435Z,13.30
2023-02-22T16:27:23.899Z,13.30
2023-02-22T16:30:05.939Z,13.30
2023-02-22T16:32:36.673Z,13.30
2023-02-22T16:35:03.384Z,13.20
2023-02-22T16:37:30.016Z,13.20
2023-02-22T16:39:56.711Z,13.20
2023-02-22T16:42:26.070Z,13.10
2023-02-22T16:44:52.915Z,13.10
2023-02-22T16:47:20.354Z,13.10
2023-02-22T16:49:52.686Z,13.00
2023-02-22T16:52:20.310Z,13.00
2023-02-22T16:54:47.337Z,13.00
2023-02-22T16:57:21.178Z,13.00
2023-02-22T16:59:51.899Z,13.00
2023-02-22T17:02:19.787Z,13.00
2023-02-22T17:04:49.784Z,13.00
2023-02-22T17:07:23.663Z,13.00
2023-02-22T17:09:51.074Z,13.00
2023-02-22T17:12:18.278Z,13.00
2023-02-22T17:14:46.068Z,12.90
2023-02-22T17:17:17.295Z,12.90
2023-02-22T17:19:43.822Z,12.90
2023-02-22T17:22:19.221Z,12.90
2023-02-22T17:24:46.287Z,12.90
2023-02-22T17:27:13.322Z,13.00
2023-02-22T17:29:44.859Z,12.90
2023-02-22T17:32:12.898Z,12.90
2023-02-22T17:34:40.549Z,12.90
2023-02-22T17:37:07.227Z,12.80
2023-02-22T17:39:33.722Z,12.80
2023-02-22T17:42:00.309Z,12.80
2023-02-22T17:44:26.912Z,12.80
2023-02-22T17:46:53.786Z,12.70
2023-02-22T17:49:20.388Z,12.70
2023-02-22T17:51:49.762Z,12.60
2023-02-22T17:54:19.305Z,12.60
2023-02-22T17:56:45.893Z,12.60
2023-02-22T17:59:12.505Z,12.60
2023-02-22T18:01:39.232Z,12.60
2023-02-22T18:04:06.210Z,12.60
2023-02-22T18:06:33.224Z,12.60
2023-02-22T18:09:00.778Z,12.60
2023-02-22T18:11:32.275Z,12.50
2023-02-22T18:13:59.262Z,12.50
2023-02-22T18:16:26.395Z,12.50
2023-02-22T18:18:53.958Z,12.50
2023-02-22T18:21:20.739Z,12.50
2023-02-22T18:23:47.404Z,12.50
2023-02-22T18:26:16.673Z,12.60
2023-02-22T18:28:43.490Z,12.50
2023-02-22T18:31:15.022Z,12.50
2023-02-22T18:33:48.987Z,12.50
2023-02-22T18:36:22.371Z,12.50
2023-02-22T18:38:50.171Z,12.60
2023-02-22T18:41:18.931Z,12.60
2023-02-22T18:43:46.545Z,12.60
2023-02-22T18:46:16.183Z,12.60
2023-02-22T18:48:43.589Z,12.60
2023-02-22T18:51:12.805Z,12.60
2023-02-22T18:53:41.098Z,12.50
2023-02-22T18:56:14.111Z,12.50
2023-02-22T18:58:43.120Z,12.50
2023-02-22T19:01:15.864Z,12.50
2023-02-22T19:03:42.766Z,12.50
2023-02-22T19:06:09.887Z,12.60
2023-02-22T19:08:40.946Z,12.60
2023-02-22T19:11:08.835Z,12.60
2023-02-22T19:13:35.534Z,12.60
2023-02-22T19:16:06.098Z,12.60
2023-02-22T19:18:32.767Z,12.60
2023-02-22T19:21:02.946Z,12.60
2023-02-22T19:23:34.323Z,12.60
2023-02-22T19:26:02.458Z,12.50
2023-02-22T19:28:33.799Z,12.50
2023-02-22T19:31:31.226Z,12.50
2023-02-22T19:34:03.458Z,12.40
2023-02-22T19:36:30.365Z,12.30
2023-02-22T19:39:01.490Z,12.30
2023-02-22T19:41:28.058Z,12.30
2023-02-22T19:43:55.683Z,12.30
2023-02-22T19:46:24.801Z,12.30
2023-02-22T19:48:52.762Z,12.20
2023-02-22T19:51:25.053Z,12.20
2023-02-22T19:53:52.614Z,12.20
2023-02-22T19:56:26.723Z,12.10
2023-02-22T19:58:55.702Z,12.10
2023-02-22T20:01:25.642Z,12.10
2023-02-22T20:03:54.994Z,12.00
2023-02-22T20:06:28.116Z,12.00
2023-02-22T20:08:55.772Z,12.00
2023-02-22T20:11:23.826Z,11.90
2023-02-22T20:13:50.844Z,12.00
2023-02-22T20:16:17.453Z,11.90
2023-02-22T20:18:48.569Z,11.90
2023-02-22T20:21:19.549Z,11.90
2023-02-22T20:23:46.273Z,11.80
2023-02-22T20:26:18.671Z,11.80
2023-02-22T20:28:46.203Z,11.80
2023-02-22T20:31:14.581Z,11.70
2023-02-22T20:33:43.074Z,11.70
2023-02-22T20:36:10.966Z,11.70
2023-02-22T20:38:38.428Z,11.70
2023-02-22T20:41:12.416Z,11.70
2023-02-22T20:43:39.671Z,11.70
2023-02-22T20:46:07.247Z,11.70
2023-02-22T20:48:34.260Z,11.70
2023-02-22T20:51:13.207Z,11.70
2023-02-22T20:53:41.760Z,11.70
2023-02-22T20:56:16.897Z,11.70
2023-02-22T20:58:43.812Z,11.70
2023-02-22T21:01:12.722Z,11.70
2023-02-22T21:03:42.045Z,11.70
2023-02-22T21:06:10.030Z,11.70
2023-02-22T21:08:36.743Z,11.80
2023-02-22T21:11:09.315Z,11.80
2023-02-22T21:13:35.891Z,11.80
2023-02-22T21:16:02.408Z,11.80
2023-02-22T21:18:28.964Z,11.70
2023-02-22T21:20:55.571Z,11.60
2023-02-22T21:23:22.122Z,11.60
2023-02-22T21:25:52.864Z,11.60
2023-02-22T21:28:19.747Z,11.60
2023-02-22T21:30:47.098Z,11.50
2023-02-22T21:33:17.273Z,11.60
2023-02-22T21:35:46.871Z,11.50
2023-02-22T21:38:14.438Z,11.50
2023-02-22T21:40:46.951Z,11.50
2023-02-22T21:43:13.485Z,11.50
2023-02-22T21:45:40.071Z,11.50
2023-02-22T21:48:06.666Z,11.50
2023-02-22T21:50:37.582Z,11.50
2023-02-22T21:53:05.760Z,11.50
2023-02-22T21:55:34.178Z,11.50
2023-02-22T21:58:00.805Z,11.40
2023-02-22T22:00:31.479Z,11.30
2023-02-22T22:03:20.232Z,11.30
2023-02-22T22:05:48.066Z,11.30
2023-02-22T22:08:21.631Z,11.30
2023-02-22T22:10:54.960Z,11.30
2023-02-22T22:13:22.840Z,11.30
2023-02-22T22:15:50.307Z,11.40
2023-02-22T22:18:17.455Z,11.40
2023-02-22T22:20:44.859Z,11.40
2023-02-22T22:23:12.439Z,11.40
2023-02-22T22:25:39.066Z,11.40
2023-02-22T22:28:07.444Z,11.30
2023-02-22T22:30:36.868Z,11.30
2023-02-22T22:33:05.410Z,11.30
2023-02-22T22:35:37.801Z,11.30
2023-02-22T22:38:04.331Z,11.30
2023-02-22T22:40:34.188Z,11.20
2023-02-22T22:43:00.851Z,11.20
2023-02-22T22:45:27.551Z,11.20
2023-02-22T22:47:54.075Z,11.20
2023-02-22T22:50:26.226Z,11.20
2023-02-22T22:52:55.506Z,11.10
2023-02-22T22:55:24.166Z,11.10
2023-02-22T22:57:51.753Z,11.00
2023-02-22T23:00:29.625Z,11.00
2023-02-22T23:02:57.162Z,11.10
2023-02-22T23:05:30.890Z,11.10
2023-02-22T23:07:57.547Z,11.10
2023-02-22T23:10:27.661Z,11.10
2023-02-22T23:12:56.401Z,11.10
2023-02-22T23:15:26.959Z,11.10
2023-02-22T23:17:59.040Z,11.00
2023-02-22T23:20:26.528Z,11.00
2023-02-22T23:22:54.414Z,10.90
2023-02-22T23:25:21.950Z,10.90
2023-02-22T23:27:49.380Z,10.80
2023-02-22T23:30:18.598Z,10.90
2023-02-22T23:32:46.596Z,10.90
2023-02-22T23:35:14.773Z,10.90
2023-02-22T23:37:42.577Z,11.00
2023-02-22T23:40:16.929Z,11.00
2023-02-22T23:42:48.471Z,11.00
2023-02-22T23:45:22.809Z,10.90
2023-02-22T23:47:57.111Z,10.90
2023-02-22T23:50:25.274Z,10.90
2023-02-22T23:53:02.491Z,10.90
2023-02-22T23:55:31.807Z,11.00
2023-02-22T23:58:03.245Z,11.00
